sensor_id;sensor_type;location;lat;lon;timestamp;P1;durP1;ratioP1;P2;durP2;ratioP2
76693;SDS011;65625;52.136;5.424;2023-02-07T00:00:19;10.23;;;5.10;;
76693;SDS011;65625;52.136;5.424;2023-02-07T00:02:47;12.30;;;5.40;;
76693;SDS011;65625;52.136;5.424;2023-02-07T00:05:14;13.82;;;6.13;;
76693;SDS011;65625;52.136;5.424;2023-02-07T00:07:41;13.63;;;5.43;;
76693;SDS011;65625;52.136;5.424;2023-02-07T00:10:08;14.10;;;5.50;;
76693;SDS011;65625;52.136;5.424;2023-02-07T00:12:34;14.40;;;5.65;;
76693;SDS011;65625;52.136;5.424;2023-02-07T00:15:01;13.63;;;5.80;;
76693;SDS011;65625;52.136;5.424;2023-02-07T00:17:28;16.27;;;5.88;;
76693;SDS011;65625;52.136;5.424;2023-02-07T00:19:55;15.35;;;6.75;;
76693;SDS011;65625;52.136;5.424;2023-02-07T00:22:22;14.98;;;6.20;;
76693;SDS011;65625;52.136;5.424;2023-02-07T00:24:49;11.98;;;5.75;;
76693;SDS011;65625;52.136;5.424;2023-02-07T00:27:15;15.02;;;6.03;;
76693;SDS011;65625;52.136;5.424;2023-02-07T00:29:43;16.75;;;6.88;;
76693;SDS011;65625;52.136;5.424;2023-02-07T00:32:09;25.23;;;7.38;;
76693;SDS011;65625;52.136;5.424;2023-02-07T00:34:36;14.57;;;7.10;;
76693;SDS011;65625;52.136;5.424;2023-02-07T00:37:04;20.23;;;6.95;;
76693;SDS011;65625;52.136;5.424;2023-02-07T00:39:31;16.67;;;7.10;;
76693;SDS011;65625;52.136;5.424;2023-02-07T00:41:58;16.52;;;7.00;;
76693;SDS011;65625;52.136;5.424;2023-02-07T00:44:25;19.92;;;7.13;;
76693;SDS011;65625;52.136;5.424;2023-02-07T00:46:52;18.05;;;6.93;;
76693;SDS011;65625;52.136;5.424;2023-02-07T00:49:18;15.13;;;5.80;;
76693;SDS011;65625;52.136;5.424;2023-02-07T00:51:45;15.93;;;6.63;;
76693;SDS011;65625;52.136;5.424;2023-02-07T00:54:12;11.75;;;4.90;;
76693;SDS011;65625;52.136;5.424;2023-02-07T00:56:38;13.80;;;5.80;;
76693;SDS011;65625;52.136;5.424;2023-02-07T00:59:05;13.05;;;4.90;;
76693;SDS011;65625;52.136;5.424;2023-02-07T01:01:33;18.58;;;6.13;;
76693;SDS011;65625;52.136;5.424;2023-02-07T01:04:00;15.70;;;5.78;;
76693;SDS011;65625;52.136;5.424;2023-02-07T01:06:27;12.25;;;5.53;;
76693;SDS011;65625;52.136;5.424;2023-02-07T01:08:59;16.73;;;5.50;;
76693;SDS011;65625;52.136;5.424;2023-02-07T01:11:27;17.48;;;5.95;;
76693;SDS011;65625;52.136;5.424;2023-02-07T01:13:55;12.30;;;5.60;;
76693;SDS011;65625;52.136;5.424;2023-02-07T01:18:53;11.45;;;5.43;;
76693;SDS011;65625;52.136;5.424;2023-02-07T01:21:21;12.43;;;5.45;;
76693;SDS011;65625;52.136;5.424;2023-02-07T01:23:49;9.88;;;5.05;;
76693;SDS011;65625;52.136;5.424;2023-02-07T01:26:16;10.45;;;5.95;;
76693;SDS011;65625;52.136;5.424;2023-02-07T01:28:42;18.25;;;6.32;;
76693;SDS011;65625;52.136;5.424;2023-02-07T01:31:10;16.65;;;5.18;;
76693;SDS011;65625;52.136;5.424;2023-02-07T01:33:38;12.90;;;5.47;;
76693;SDS011;65625;52.136;5.424;2023-02-07T01:36:05;13.13;;;5.85;;
76693;SDS011;65625;52.136;5.424;2023-02-07T01:38:33;14.05;;;5.63;;
76693;SDS011;65625;52.136;5.424;2023-02-07T01:41:00;13.55;;;5.57;;
76693;SDS011;65625;52.136;5.424;2023-02-07T01:43:27;20.17;;;6.07;;
76693;SDS011;65625;52.136;5.424;2023-02-07T01:45:54;15.38;;;6.07;;
76693;SDS011;65625;52.136;5.424;2023-02-07T01:48:30;15.13;;;5.75;;
76693;SDS011;65625;52.136;5.424;2023-02-07T01:51:01;12.07;;;5.78;;
76693;SDS011;65625;52.136;5.424;2023-02-07T01:53:31;12.35;;;6.10;;
76693;SDS011;65625;52.136;5.424;2023-02-07T01:56:00;10.95;;;5.63;;
76693;SDS011;65625;52.136;5.424;2023-02-07T01:58:32;13.40;;;6.30;;
76693;SDS011;65625;52.136;5.424;2023-02-07T02:01:00;16.27;;;6.63;;
76693;SDS011;65625;52.136;5.424;2023-02-07T02:03:31;15.98;;;5.93;;
76693;SDS011;65625;52.136;5.424;2023-02-07T02:06:01;11.68;;;5.78;;
76693;SDS011;65625;52.136;5.424;2023-02-07T02:08:28;11.60;;;6.15;;
76693;SDS011;65625;52.136;5.424;2023-02-07T02:22:13;15.23;;;6.28;;
76693;SDS011;65625;52.136;5.424;2023-02-07T02:33:41;16.02;;;6.22;;
76693;SDS011;65625;52.136;5.424;2023-02-07T02:44:58;16.45;;;4.57;;
76693;SDS011;65625;52.136;5.424;2023-02-07T02:47:28;15.38;;;4.93;;
76693;SDS011;65625;52.136;5.424;2023-02-07T02:49:58;14.68;;;5.53;;
76693;SDS011;65625;52.136;5.424;2023-02-07T02:52:25;13.07;;;5.47;;
76693;SDS011;65625;52.136;5.424;2023-02-07T02:55:14;14.77;;;5.55;;
76693;SDS011;65625;52.136;5.424;2023-02-07T03:01:00;10.35;;;5.18;;
76693;SDS011;65625;52.136;5.424;2023-02-07T03:03:34;11.75;;;5.20;;
76693;SDS011;65625;52.136;5.424;2023-02-07T03:11:59;12.63;;;5.25;;
76693;SDS011;65625;52.136;5.424;2023-02-07T03:19:42;15.75;;;5.45;;
76693;SDS011;65625;52.136;5.424;2023-02-07T03:22:16;13.73;;;5.68;;
76693;SDS011;65625;52.136;5.424;2023-02-07T03:24:50;14.10;;;6.07;;
76693;SDS011;65625;52.136;5.424;2023-02-07T03:27:21;11.65;;;5.93;;
76693;SDS011;65625;52.136;5.424;2023-02-07T03:29:51;14.70;;;6.22;;
76693;SDS011;65625;52.136;5.424;2023-02-07T03:32:23;14.75;;;5.70;;
76693;SDS011;65625;52.136;5.424;2023-02-07T03:35:13;13.95;;;6.18;;
76693;SDS011;65625;52.136;5.424;2023-02-07T03:37:47;13.32;;;6.32;;
76693;SDS011;65625;52.136;5.424;2023-02-07T03:40:16;15.35;;;5.63;;
76693;SDS011;65625;52.136;5.424;2023-02-07T03:42:45;16.80;;;6.60;;
76693;SDS011;65625;52.136;5.424;2023-02-07T03:45:17;15.10;;;5.97;;
76693;SDS011;65625;52.136;5.424;2023-02-07T03:47:46;13.77;;;5.47;;
76693;SDS011;65625;52.136;5.424;2023-02-07T03:50:12;10.73;;;5.18;;
76693;SDS011;65625;52.136;5.424;2023-02-07T03:52:40;11.93;;;5.60;;
76693;SDS011;65625;52.136;5.424;2023-02-07T03:55:06;14.45;;;5.88;;
76693;SDS011;65625;52.136;5.424;2023-02-07T03:57:33;15.85;;;5.82;;
76693;SDS011;65625;52.136;5.424;2023-02-07T04:00:00;15.23;;;6.00;;
76693;SDS011;65625;52.136;5.424;2023-02-07T04:02:26;12.70;;;5.70;;
76693;SDS011;65625;52.136;5.424;2023-02-07T04:04:53;13.75;;;4.65;;
76693;SDS011;65625;52.136;5.424;2023-02-07T04:07:20;14.68;;;5.82;;
76693;SDS011;65625;52.136;5.424;2023-02-07T04:09:46;14.60;;;5.72;;
76693;SDS011;65625;52.136;5.424;2023-02-07T04:12:13;14.43;;;5.53;;
76693;SDS011;65625;52.136;5.424;2023-02-07T04:14:39;15.15;;;5.30;;
76693;SDS011;65625;52.136;5.424;2023-02-07T04:17:06;17.08;;;5.95;;
76693;SDS011;65625;52.136;5.424;2023-02-07T04:19:32;26.50;;;5.57;;
76693;SDS011;65625;52.136;5.424;2023-02-07T04:21:59;21.90;;;6.32;;
76693;SDS011;65625;52.136;5.424;2023-02-07T04:24:25;10.88;;;4.85;;
76693;SDS011;65625;52.136;5.424;2023-02-07T04:26:52;14.93;;;5.93;;
76693;SDS011;65625;52.136;5.424;2023-02-07T04:29:18;20.00;;;5.40;;
76693;SDS011;65625;52.136;5.424;2023-02-07T04:31:45;15.77;;;6.30;;
76693;SDS011;65625;52.136;5.424;2023-02-07T04:34:12;18.55;;;5.80;;
76693;SDS011;65625;52.136;5.424;2023-02-07T04:36:38;16.33;;;6.20;;
76693;SDS011;65625;52.136;5.424;2023-02-07T04:39:05;15.00;;;5.90;;
76693;SDS011;65625;52.136;5.424;2023-02-07T04:41:32;17.55;;;6.32;;
76693;SDS011;65625;52.136;5.424;2023-02-07T04:43:58;11.48;;;5.30;;
76693;SDS011;65625;52.136;5.424;2023-02-07T04:46:24;13.68;;;6.18;;
76693;SDS011;65625;52.136;5.424;2023-02-07T04:48:53;13.57;;;5.32;;
76693;SDS011;65625;52.136;5.424;2023-02-07T04:51:20;12.25;;;5.30;;
76693;SDS011;65625;52.136;5.424;2023-02-07T04:53:46;12.38;;;5.28;;
76693;SDS011;65625;52.136;5.424;2023-02-07T04:56:13;15.48;;;6.00;;
76693;SDS011;65625;52.136;5.424;2023-02-07T04:58:39;9.55;;;4.93;;
76693;SDS011;65625;52.136;5.424;2023-02-07T05:01:07;14.70;;;6.10;;
76693;SDS011;65625;52.136;5.424;2023-02-07T05:03:33;12.90;;;5.20;;
76693;SDS011;65625;52.136;5.424;2023-02-07T05:06:00;15.38;;;5.20;;
76693;SDS011;65625;52.136;5.424;2023-02-07T05:08:26;13.27;;;5.65;;
76693;SDS011;65625;52.136;5.424;2023-02-07T05:10:53;9.65;;;4.85;;
76693;SDS011;65625;52.136;5.424;2023-02-07T05:13:21;12.82;;;5.30;;
76693;SDS011;65625;52.136;5.424;2023-02-07T05:15:48;16.00;;;5.50;;
76693;SDS011;65625;52.136;5.424;2023-02-07T05:18:15;12.93;;;5.60;;
76693;SDS011;65625;52.136;5.424;2023-02-07T05:20:43;18.02;;;5.57;;
76693;SDS011;65625;52.136;5.424;2023-02-07T05:23:09;14.93;;;6.25;;
76693;SDS011;65625;52.136;5.424;2023-02-07T05:25:36;14.55;;;4.85;;
76693;SDS011;65625;52.136;5.424;2023-02-07T05:28:03;20.85;;;5.40;;
76693;SDS011;65625;52.136;5.424;2023-02-07T05:30:30;16.10;;;5.47;;
76693;SDS011;65625;52.136;5.424;2023-02-07T05:32:56;15.13;;;5.95;;
76693;SDS011;65625;52.136;5.424;2023-02-07T05:35:32;13.77;;;6.28;;
76693;SDS011;65625;52.136;5.424;2023-02-07T05:37:59;13.85;;;5.43;;
76693;SDS011;65625;52.136;5.424;2023-02-07T05:40:26;15.38;;;4.97;;
76693;SDS011;65625;52.136;5.424;2023-02-07T05:42:53;15.68;;;5.90;;
76693;SDS011;65625;52.136;5.424;2023-02-07T05:45:20;13.95;;;5.60;;
76693;SDS011;65625;52.136;5.424;2023-02-07T05:47:47;14.88;;;5.68;;
76693;SDS011;65625;52.136;5.424;2023-02-07T05:50:13;14.40;;;5.35;;
76693;SDS011;65625;52.136;5.424;2023-02-07T05:52:40;15.75;;;5.47;;
76693;SDS011;65625;52.136;5.424;2023-02-07T05:55:07;14.13;;;5.13;;
76693;SDS011;65625;52.136;5.424;2023-02-07T05:57:34;12.43;;;5.68;;
76693;SDS011;65625;52.136;5.424;2023-02-07T06:00:01;14.38;;;5.43;;
76693;SDS011;65625;52.136;5.424;2023-02-07T06:05:03;10.70;;;4.60;;
76693;SDS011;65625;52.136;5.424;2023-02-07T06:07:30;13.88;;;5.00;;
76693;SDS011;65625;52.136;5.424;2023-02-07T06:09:57;13.90;;;5.43;;
76693;SDS011;65625;52.136;5.424;2023-02-07T06:12:24;17.73;;;5.88;;
76693;SDS011;65625;52.136;5.424;2023-02-07T06:14:50;12.02;;;4.63;;
76693;SDS011;65625;52.136;5.424;2023-02-07T06:17:16;15.38;;;5.43;;
76693;SDS011;65625;52.136;5.424;2023-02-07T06:19:43;14.10;;;5.28;;
76693;SDS011;65625;52.136;5.424;2023-02-07T06:22:09;14.15;;;5.93;;
76693;SDS011;65625;52.136;5.424;2023-02-07T06:24:36;16.23;;;5.95;;
76693;SDS011;65625;52.136;5.424;2023-02-07T06:27:02;16.73;;;6.05;;
76693;SDS011;65625;52.136;5.424;2023-02-07T06:29:29;15.75;;;6.03;;
76693;SDS011;65625;52.136;5.424;2023-02-07T06:31:55;13.95;;;6.53;;
76693;SDS011;65625;52.136;5.424;2023-02-07T06:34:22;17.88;;;6.50;;
76693;SDS011;65625;52.136;5.424;2023-02-07T06:36:48;15.55;;;6.07;;
76693;SDS011;65625;52.136;5.424;2023-02-07T06:39:15;30.20;;;7.88;;
76693;SDS011;65625;52.136;5.424;2023-02-07T06:41:41;19.92;;;6.82;;
76693;SDS011;65625;52.136;5.424;2023-02-07T06:44:08;15.25;;;6.40;;
76693;SDS011;65625;52.136;5.424;2023-02-07T06:46:34;17.02;;;7.65;;
76693;SDS011;65625;52.136;5.424;2023-02-07T06:49:01;16.88;;;8.05;;
76693;SDS011;65625;52.136;5.424;2023-02-07T06:51:27;23.38;;;7.63;;
76693;SDS011;65625;52.136;5.424;2023-02-07T06:53:54;17.02;;;6.53;;
76693;SDS011;65625;52.136;5.424;2023-02-07T06:56:20;21.48;;;7.32;;
76693;SDS011;65625;52.136;5.424;2023-02-07T06:58:47;15.18;;;6.55;;
76693;SDS011;65625;52.136;5.424;2023-02-07T07:01:14;19.65;;;6.93;;
76693;SDS011;65625;52.136;5.424;2023-02-07T07:03:45;16.35;;;7.00;;
76693;SDS011;65625;52.136;5.424;2023-02-07T07:06:12;21.63;;;8.68;;
76693;SDS011;65625;52.136;5.424;2023-02-07T07:08:39;22.08;;;8.23;;
76693;SDS011;65625;52.136;5.424;2023-02-07T07:11:05;19.88;;;7.45;;
76693;SDS011;65625;52.136;5.424;2023-02-07T07:13:32;21.17;;;8.25;;
76693;SDS011;65625;52.136;5.424;2023-02-07T07:15:58;19.35;;;7.70;;
76693;SDS011;65625;52.136;5.424;2023-02-07T07:18:25;18.45;;;7.28;;
76693;SDS011;65625;52.136;5.424;2023-02-07T07:20:53;19.10;;;6.55;;
76693;SDS011;65625;52.136;5.424;2023-02-07T07:23:20;16.20;;;6.65;;
76693;SDS011;65625;52.136;5.424;2023-02-07T07:25:47;16.63;;;6.85;;
76693;SDS011;65625;52.136;5.424;2023-02-07T07:28:13;17.52;;;7.63;;
76693;SDS011;65625;52.136;5.424;2023-02-07T07:30:40;21.25;;;6.88;;
76693;SDS011;65625;52.136;5.424;2023-02-07T07:33:06;17.92;;;7.03;;
76693;SDS011;65625;52.136;5.424;2023-02-07T07:35:33;18.40;;;7.10;;
76693;SDS011;65625;52.136;5.424;2023-02-07T07:38:00;17.75;;;6.70;;
76693;SDS011;65625;52.136;5.424;2023-02-07T07:40:26;18.77;;;7.43;;
76693;SDS011;65625;52.136;5.424;2023-02-07T07:42:53;21.38;;;7.50;;
76693;SDS011;65625;52.136;5.424;2023-02-07T07:45:32;22.13;;;8.50;;
76693;SDS011;65625;52.136;5.424;2023-02-07T07:47:59;18.02;;;6.68;;
76693;SDS011;65625;52.136;5.424;2023-02-07T07:50:25;18.13;;;8.00;;
76693;SDS011;65625;52.136;5.424;2023-02-07T07:52:52;24.33;;;8.73;;
76693;SDS011;65625;52.136;5.424;2023-02-07T07:55:22;26.25;;;7.90;;
76693;SDS011;65625;52.136;5.424;2023-02-07T07:57:48;22.60;;;7.95;;
76693;SDS011;65625;52.136;5.424;2023-02-07T08:00:15;22.30;;;7.85;;
76693;SDS011;65625;52.136;5.424;2023-02-07T08:02:42;19.33;;;7.85;;
76693;SDS011;65625;52.136;5.424;2023-02-07T08:05:08;19.38;;;7.45;;
76693;SDS011;65625;52.136;5.424;2023-02-07T08:07:39;25.90;;;8.77;;
76693;SDS011;65625;52.136;5.424;2023-02-07T08:10:05;18.13;;;7.40;;
76693;SDS011;65625;52.136;5.424;2023-02-07T08:12:32;21.77;;;8.35;;
76693;SDS011;65625;52.136;5.424;2023-02-07T08:14:58;26.70;;;9.88;;
76693;SDS011;65625;52.136;5.424;2023-02-07T08:17:25;24.67;;;8.55;;
76693;SDS011;65625;52.136;5.424;2023-02-07T08:19:51;26.77;;;9.93;;
76693;SDS011;65625;52.136;5.424;2023-02-07T08:22:18;29.77;;;10.02;;
76693;SDS011;65625;52.136;5.424;2023-02-07T08:24:45;31.17;;;9.45;;
76693;SDS011;65625;52.136;5.424;2023-02-07T08:27:11;28.50;;;11.05;;
76693;SDS011;65625;52.136;5.424;2023-02-07T08:29:38;30.08;;;11.40;;
76693;SDS011;65625;52.136;5.424;2023-02-07T08:32:04;26.30;;;9.10;;
76693;SDS011;65625;52.136;5.424;2023-02-07T08:34:31;24.15;;;8.20;;
76693;SDS011;65625;52.136;5.424;2023-02-07T08:37:05;26.80;;;9.07;;
76693;SDS011;65625;52.136;5.424;2023-02-07T08:39:34;23.48;;;9.05;;
76693;SDS011;65625;52.136;5.424;2023-02-07T08:42:01;26.70;;;8.68;;
76693;SDS011;65625;52.136;5.424;2023-02-07T08:44:30;23.85;;;9.50;;
76693;SDS011;65625;52.136;5.424;2023-02-07T08:46:57;20.60;;;8.98;;
76693;SDS011;65625;52.136;5.424;2023-02-07T08:49:23;21.95;;;9.18;;
76693;SDS011;65625;52.136;5.424;2023-02-07T08:51:50;23.05;;;9.20;;
76693;SDS011;65625;52.136;5.424;2023-02-07T08:54:18;27.20;;;9.00;;
76693;SDS011;65625;52.136;5.424;2023-02-07T08:56:44;23.80;;;8.95;;
76693;SDS011;65625;52.136;5.424;2023-02-07T08:59:11;29.73;;;9.85;;
76693;SDS011;65625;52.136;5.424;2023-02-07T09:01:37;26.30;;;9.82;;
76693;SDS011;65625;52.136;5.424;2023-02-07T09:04:04;28.70;;;10.07;;
76693;SDS011;65625;52.136;5.424;2023-02-07T09:06:30;26.77;;;9.27;;
76693;SDS011;65625;52.136;5.424;2023-02-07T09:08:57;24.48;;;9.07;;
76693;SDS011;65625;52.136;5.424;2023-02-07T09:11:24;28.90;;;9.30;;
76693;SDS011;65625;52.136;5.424;2023-02-07T09:13:50;27.27;;;9.10;;
76693;SDS011;65625;52.136;5.424;2023-02-07T09:16:17;25.77;;;10.10;;
76693;SDS011;65625;52.136;5.424;2023-02-07T09:18:44;23.60;;;9.57;;
76693;SDS011;65625;52.136;5.424;2023-02-07T09:21:10;23.48;;;10.45;;
76693;SDS011;65625;52.136;5.424;2023-02-07T09:23:37;24.85;;;9.90;;
76693;SDS011;65625;52.136;5.424;2023-02-07T09:26:04;24.77;;;10.45;;
76693;SDS011;65625;52.136;5.424;2023-02-07T09:28:32;21.52;;;8.98;;
76693;SDS011;65625;52.136;5.424;2023-02-07T09:30:59;27.50;;;9.90;;
76693;SDS011;65625;52.136;5.424;2023-02-07T09:33:25;27.75;;;10.10;;
76693;SDS011;65625;52.136;5.424;2023-02-07T09:35:52;23.40;;;8.85;;
76693;SDS011;65625;52.136;5.424;2023-02-07T09:38:20;22.63;;;8.77;;
76693;SDS011;65625;52.136;5.424;2023-02-07T09:40:51;24.23;;;8.30;;
76693;SDS011;65625;52.136;5.424;2023-02-07T09:43:25;20.23;;;9.57;;
76693;SDS011;65625;52.136;5.424;2023-02-07T09:46:04;22.67;;;9.02;;
76693;SDS011;65625;52.136;5.424;2023-02-07T09:51:30;18.95;;;8.07;;
76693;SDS011;65625;52.136;5.424;2023-02-07T09:54:00;16.95;;;7.47;;
76693;SDS011;65625;52.136;5.424;2023-02-07T09:56:30;15.18;;;7.30;;
76693;SDS011;65625;52.136;5.424;2023-02-07T09:59:04;16.08;;;8.02;;
76693;SDS011;65625;52.136;5.424;2023-02-07T10:01:42;17.92;;;8.02;;
76693;SDS011;65625;52.136;5.424;2023-02-07T10:04:14;16.15;;;8.10;;
76693;SDS011;65625;52.136;5.424;2023-02-07T10:06:54;17.30;;;8.50;;
76693;SDS011;65625;52.136;5.424;2023-02-07T10:09:24;16.55;;;7.95;;
76693;SDS011;65625;52.136;5.424;2023-02-07T10:14:43;16.80;;;7.70;;
76693;SDS011;65625;52.136;5.424;2023-02-07T10:17:40;16.13;;;7.68;;
76693;SDS011;65625;52.136;5.424;2023-02-07T10:22:44;15.20;;;8.05;;
76693;SDS011;65625;52.136;5.424;2023-02-07T10:31:32;13.00;;;6.80;;
76693;SDS011;65625;52.136;5.424;2023-02-07T10:34:13;11.18;;;6.72;;
76693;SDS011;65625;52.136;5.424;2023-02-07T10:36:47;16.05;;;7.75;;
76693;SDS011;65625;52.136;5.424;2023-02-07T10:39:36;12.63;;;6.90;;
76693;SDS011;65625;52.136;5.424;2023-02-07T10:42:12;15.02;;;7.68;;
76693;SDS011;65625;52.136;5.424;2023-02-07T10:44:41;15.57;;;8.00;;
76693;SDS011;65625;52.136;5.424;2023-02-07T10:47:11;13.90;;;6.57;;
76693;SDS011;65625;52.136;5.424;2023-02-07T10:49:40;10.52;;;6.40;;
76693;SDS011;65625;52.136;5.424;2023-02-07T10:52:25;21.65;;;12.90;;
76693;SDS011;65625;52.136;5.424;2023-02-07T10:55:00;20.10;;;10.55;;
76693;SDS011;65625;52.136;5.424;2023-02-07T10:57:29;24.25;;;13.57;;
76693;SDS011;65625;52.136;5.424;2023-02-07T10:59:57;23.63;;;12.18;;
76693;SDS011;65625;52.136;5.424;2023-02-07T11:04:54;11.60;;;6.95;;
76693;SDS011;65625;52.136;5.424;2023-02-07T11:07:21;10.30;;;5.97;;
76693;SDS011;65625;52.136;5.424;2023-02-07T11:09:48;10.15;;;6.32;;
76693;SDS011;65625;52.136;5.424;2023-02-07T11:12:18;12.25;;;6.20;;
76693;SDS011;65625;52.136;5.424;2023-02-07T11:17:48;9.80;;;5.90;;
76693;SDS011;65625;52.136;5.424;2023-02-07T11:22:49;10.25;;;6.15;;
76693;SDS011;65625;52.136;5.424;2023-02-07T11:25:17;8.68;;;5.63;;
76693;SDS011;65625;52.136;5.424;2023-02-07T11:27:44;10.85;;;5.85;;
76693;SDS011;65625;52.136;5.424;2023-02-07T11:30:16;6.40;;;3.85;;
76693;SDS011;65625;52.136;5.424;2023-02-07T11:32:53;6.18;;;3.35;;
76693;SDS011;65625;52.136;5.424;2023-02-07T11:35:23;6.15;;;3.40;;
76693;SDS011;65625;52.136;5.424;2023-02-07T11:38:02;6.63;;;4.00;;
76693;SDS011;65625;52.136;5.424;2023-02-07T11:40:44;8.02;;;3.95;;
76693;SDS011;65625;52.136;5.424;2023-02-07T11:43:15;5.60;;;3.70;;
76693;SDS011;65625;52.136;5.424;2023-02-07T11:45:48;5.60;;;3.42;;
76693;SDS011;65625;52.136;5.424;2023-02-07T11:48:23;6.57;;;3.83;;
76693;SDS011;65625;52.136;5.424;2023-02-07T11:50:57;6.43;;;3.40;;
76693;SDS011;65625;52.136;5.424;2023-02-07T11:53:30;7.45;;;4.03;;
76693;SDS011;65625;52.136;5.424;2023-02-07T11:56:00;7.05;;;3.97;;
76693;SDS011;65625;52.136;5.424;2023-02-07T11:58:37;6.90;;;3.95;;
76693;SDS011;65625;52.136;5.424;2023-02-07T12:01:13;6.15;;;3.60;;
76693;SDS011;65625;52.136;5.424;2023-02-07T12:06:15;6.00;;;3.65;;
76693;SDS011;65625;52.136;5.424;2023-02-07T12:08:44;7.00;;;3.55;;
76693;SDS011;65625;52.136;5.424;2023-02-07T12:11:16;6.43;;;3.03;;
76693;SDS011;65625;52.136;5.424;2023-02-07T12:16:57;6.85;;;3.38;;
76693;SDS011;65625;52.136;5.424;2023-02-07T12:22:13;7.03;;;3.45;;
76693;SDS011;65625;52.136;5.424;2023-02-07T12:27:19;10.00;;;4.07;;
76693;SDS011;65625;52.136;5.424;2023-02-07T12:37:52;6.30;;;3.10;;
76693;SDS011;65625;52.136;5.424;2023-02-07T12:40:59;6.00;;;3.15;;
76693;SDS011;65625;52.136;5.424;2023-02-07T12:43:37;7.88;;;3.70;;
76693;SDS011;65625;52.136;5.424;2023-02-07T12:46:11;8.02;;;3.95;;
76693;SDS011;65625;52.136;5.424;2023-02-07T12:54:30;8.05;;;3.60;;
76693;SDS011;65625;52.136;5.424;2023-02-07T12:57:12;6.75;;;3.70;;
76693;SDS011;65625;52.136;5.424;2023-02-07T12:59:53;5.70;;;3.47;;
76693;SDS011;65625;52.136;5.424;2023-02-07T13:08:59;9.27;;;3.97;;
76693;SDS011;65625;52.136;5.424;2023-02-07T13:11:38;7.32;;;4.13;;
76693;SDS011;65625;52.136;5.424;2023-02-07T13:22:46;9.57;;;4.45;;
76693;SDS011;65625;52.136;5.424;2023-02-07T13:27:53;9.80;;;4.07;;
76693;SDS011;65625;52.136;5.424;2023-02-07T13:30:22;6.72;;;3.70;;
76693;SDS011;65625;52.136;5.424;2023-02-07T13:32:51;8.20;;;4.20;;
76693;SDS011;65625;52.136;5.424;2023-02-07T13:35:25;7.35;;;3.67;;
76693;SDS011;65625;52.136;5.424;2023-02-07T13:38:04;8.50;;;4.32;;
76693;SDS011;65625;52.136;5.424;2023-02-07T13:40:49;7.75;;;4.30;;
76693;SDS011;65625;52.136;5.424;2023-02-07T13:49:20;9.02;;;3.75;;
76693;SDS011;65625;52.136;5.424;2023-02-07T13:52:57;9.48;;;4.60;;
76693;SDS011;65625;52.136;5.424;2023-02-07T13:55:18;8.13;;;4.13;;
76693;SDS011;65625;52.136;5.424;2023-02-07T13:57:57;8.57;;;3.50;;
76693;SDS011;65625;52.136;5.424;2023-02-07T14:03:19;7.50;;;4.03;;
76693;SDS011;65625;52.136;5.424;2023-02-07T14:05:47;8.00;;;4.00;;
76693;SDS011;65625;52.136;5.424;2023-02-07T14:10:43;13.48;;;6.72;;
76693;SDS011;65625;52.136;5.424;2023-02-07T14:13:19;10.57;;;4.82;;
76693;SDS011;65625;52.136;5.424;2023-02-07T14:27:23;9.13;;;4.40;;
76693;SDS011;65625;52.136;5.424;2023-02-07T14:31:59;7.03;;;3.30;;
76693;SDS011;65625;52.136;5.424;2023-02-07T14:37:43;9.00;;;4.57;;
76693;SDS011;65625;52.136;5.424;2023-02-07T14:40:18;7.53;;;3.38;;
76693;SDS011;65625;52.136;5.424;2023-02-07T14:42:54;6.32;;;3.28;;
76693;SDS011;65625;52.136;5.424;2023-02-07T14:45:27;7.00;;;3.55;;
76693;SDS011;65625;52.136;5.424;2023-02-07T14:47:56;6.68;;;3.40;;
76693;SDS011;65625;52.136;5.424;2023-02-07T14:50:24;6.45;;;3.45;;
76693;SDS011;65625;52.136;5.424;2023-02-07T14:53:02;9.20;;;3.33;;
76693;SDS011;65625;52.136;5.424;2023-02-07T14:55:35;11.55;;;3.78;;
76693;SDS011;65625;52.136;5.424;2023-02-07T14:58:12;7.95;;;4.00;;
76693;SDS011;65625;52.136;5.424;2023-02-07T15:01:12;5.35;;;3.00;;
76693;SDS011;65625;52.136;5.424;2023-02-07T15:03:42;6.07;;;3.35;;
76693;SDS011;65625;52.136;5.424;2023-02-07T15:06:16;7.45;;;3.90;;
76693;SDS011;65625;52.136;5.424;2023-02-07T15:08:58;8.80;;;3.50;;
76693;SDS011;65625;52.136;5.424;2023-02-07T15:11:27;5.53;;;3.08;;
76693;SDS011;65625;52.136;5.424;2023-02-07T15:13:55;9.80;;;3.50;;
76693;SDS011;65625;52.136;5.424;2023-02-07T15:16:26;6.43;;;3.42;;
76693;SDS011;65625;52.136;5.424;2023-02-07T15:21:40;7.15;;;3.50;;
76693;SDS011;65625;52.136;5.424;2023-02-07T15:26:54;8.10;;;3.78;;
76693;SDS011;65625;52.136;5.424;2023-02-07T15:29:24;10.43;;;4.30;;
76693;SDS011;65625;52.136;5.424;2023-02-07T15:31:55;7.03;;;3.47;;
76693;SDS011;65625;52.136;5.424;2023-02-07T15:34:24;7.55;;;3.58;;
76693;SDS011;65625;52.136;5.424;2023-02-07T15:37:10;8.35;;;3.22;;
76693;SDS011;65625;52.136;5.424;2023-02-07T15:39:39;7.60;;;3.38;;
76693;SDS011;65625;52.136;5.424;2023-02-07T15:42:05;8.73;;;3.58;;
76693;SDS011;65625;52.136;5.424;2023-02-07T15:44:45;7.90;;;3.67;;
76693;SDS011;65625;52.136;5.424;2023-02-07T15:49:57;10.38;;;3.10;;
76693;SDS011;65625;52.136;5.424;2023-02-07T15:52:39;7.97;;;3.25;;
76693;SDS011;65625;52.136;5.424;2023-02-07T15:57:55;7.15;;;3.50;;
76693;SDS011;65625;52.136;5.424;2023-02-07T16:00:38;7.38;;;3.28;;
76693;SDS011;65625;52.136;5.424;2023-02-07T16:05:56;9.43;;;3.85;;
76693;SDS011;65625;52.136;5.424;2023-02-07T16:08:37;7.20;;;3.53;;
76693;SDS011;65625;52.136;5.424;2023-02-07T16:11:11;9.40;;;3.83;;
76693;SDS011;65625;52.136;5.424;2023-02-07T16:13:46;7.15;;;3.60;;
76693;SDS011;65625;52.136;5.424;2023-02-07T16:16:19;8.07;;;3.95;;
76693;SDS011;65625;52.136;5.424;2023-02-07T16:19:03;7.60;;;3.88;;
76693;SDS011;65625;52.136;5.424;2023-02-07T16:22:06;9.85;;;4.50;;
76693;SDS011;65625;52.136;5.424;2023-02-07T16:24:38;10.75;;;4.47;;
76693;SDS011;65625;52.136;5.424;2023-02-07T16:27:11;9.35;;;4.95;;
76693;SDS011;65625;52.136;5.424;2023-02-07T16:29:42;9.95;;;4.38;;
76693;SDS011;65625;52.136;5.424;2023-02-07T16:32:10;10.43;;;5.25;;
76693;SDS011;65625;52.136;5.424;2023-02-07T16:34:37;9.32;;;5.28;;
76693;SDS011;65625;52.136;5.424;2023-02-07T16:37:22;9.20;;;4.22;;
76693;SDS011;65625;52.136;5.424;2023-02-07T16:39:49;9.60;;;4.57;;
76693;SDS011;65625;52.136;5.424;2023-02-07T16:42:15;15.77;;;4.97;;
76693;SDS011;65625;52.136;5.424;2023-02-07T16:44:45;10.05;;;4.90;;
76693;SDS011;65625;52.136;5.424;2023-02-07T16:47:12;11.35;;;5.07;;
76693;SDS011;65625;52.136;5.424;2023-02-07T16:49:40;12.27;;;4.78;;
76693;SDS011;65625;52.136;5.424;2023-02-07T16:52:09;10.13;;;4.72;;
76693;SDS011;65625;52.136;5.424;2023-02-07T16:54:36;9.70;;;5.38;;
76693;SDS011;65625;52.136;5.424;2023-02-07T16:57:03;10.88;;;5.72;;
76693;SDS011;65625;52.136;5.424;2023-02-07T16:59:29;13.52;;;5.47;;
76693;SDS011;65625;52.136;5.424;2023-02-07T17:01:56;11.13;;;5.13;;
76693;SDS011;65625;52.136;5.424;2023-02-07T17:04:22;13.68;;;5.35;;
76693;SDS011;65625;52.136;5.424;2023-02-07T17:06:49;14.98;;;6.05;;
76693;SDS011;65625;52.136;5.424;2023-02-07T17:09:20;13.75;;;6.32;;
76693;SDS011;65625;52.136;5.424;2023-02-07T17:11:50;14.13;;;5.95;;
76693;SDS011;65625;52.136;5.424;2023-02-07T17:14:17;15.20;;;6.55;;
76693;SDS011;65625;52.136;5.424;2023-02-07T17:16:44;12.63;;;5.70;;
76693;SDS011;65625;52.136;5.424;2023-02-07T17:19:15;11.32;;;5.57;;
76693;SDS011;65625;52.136;5.424;2023-02-07T17:21:44;12.45;;;5.47;;
76693;SDS011;65625;52.136;5.424;2023-02-07T17:24:11;11.25;;;5.63;;
76693;SDS011;65625;52.136;5.424;2023-02-07T17:26:38;11.20;;;4.90;;
76693;SDS011;65625;52.136;5.424;2023-02-07T17:29:09;13.27;;;5.05;;